sensor_id;sensor_type;location;lat;lon;timestamp;P1;durP1;ratioP1;P2;durP2;ratioP2
77324;SDS011;66387;53.440;10.390;2023-07-29T00:00:45;5.70;;;4.43;;
77324;SDS011;66387;53.440;10.390;2023-07-29T00:03:11;4.78;;;4.15;;
77324;SDS011;66387;53.440;10.390;2023-07-29T00:05:36;5.22;;;4.30;;
77324;SDS011;66387;53.440;10.390;2023-07-29T00:08:02;7.97;;;5.25;;
77324;SDS011;66387;53.440;10.390;2023-07-29T00:10:28;5.28;;;4.45;;
77324;SDS011;66387;53.440;10.390;2023-07-29T00:12:53;5.70;;;5.10;;
77324;SDS011;66387;53.440;10.390;2023-07-29T00:15:19;5.27;;;4.77;;
77324;SDS011;66387;53.440;10.390;2023-07-29T00:17:44;6.73;;;4.83;;
77324;SDS011;66387;53.440;10.390;2023-07-29T00:20:09;7.20;;;5.07;;
77324;SDS011;66387;53.440;10.390;2023-07-29T00:22:35;5.85;;;4.63;;
77324;SDS011;66387;53.440;10.390;2023-07-29T00:25:00;6.82;;;5.40;;
77324;SDS011;66387;53.440;10.390;2023-07-29T00:27:25;6.17;;;5.17;;
77324;SDS011;66387;53.440;10.390;2023-07-29T00:29:51;6.75;;;5.07;;
77324;SDS011;66387;53.440;10.390;2023-07-29T00:32:17;7.72;;;5.28;;
77324;SDS011;66387;53.440;10.390;2023-07-29T00:34:42;6.78;;;5.47;;
77324;SDS011;66387;53.440;10.390;2023-07-29T00:37:07;6.30;;;5.67;;
77324;SDS011;66387;53.440;10.390;2023-07-29T00:39:33;6.37;;;5.10;;
77324;SDS011;66387;53.440;10.390;2023-07-29T00:41:58;7.53;;;5.37;;
77324;SDS011;66387;53.440;10.390;2023-07-29T00:44:24;6.72;;;5.43;;
77324;SDS011;66387;53.440;10.390;2023-07-29T00:46:52;6.03;;;5.18;;
77324;SDS011;66387;53.440;10.390;2023-07-29T00:49:18;6.63;;;5.65;;
77324;SDS011;66387;53.440;10.390;2023-07-29T00:51:44;7.68;;;5.60;;
77324;SDS011;66387;53.440;10.390;2023-07-29T00:54:10;7.93;;;5.15;;
77324;SDS011;66387;53.440;10.390;2023-07-29T00:56:35;6.88;;;5.70;;
77324;SDS011;66387;53.440;10.390;2023-07-29T00:59:01;10.20;;;5.73;;
77324;SDS011;66387;53.440;10.390;2023-07-29T01:01:30;7.78;;;6.00;;
77324;SDS011;66387;53.440;10.390;2023-07-29T01:03:56;6.00;;;5.28;;
77324;SDS011;66387;53.440;10.390;2023-07-29T01:06:25;5.90;;;5.28;;
77324;SDS011;66387;53.440;10.390;2023-07-29T01:09:02;6.65;;;4.93;;
77324;SDS011;66387;53.440;10.390;2023-07-29T01:17:07;6.57;;;5.68;;
77324;SDS011;66387;53.440;10.390;2023-07-29T01:19:42;6.93;;;5.25;;
77324;SDS011;66387;53.440;10.390;2023-07-29T01:22:20;5.57;;;4.72;;
77324;SDS011;66387;53.440;10.390;2023-07-29T01:24:46;5.72;;;4.97;;
77324;SDS011;66387;53.440;10.390;2023-07-29T01:27:11;6.50;;;5.90;;
77324;SDS011;66387;53.440;10.390;2023-07-29T01:29:37;6.03;;;5.13;;
77324;SDS011;66387;53.440;10.390;2023-07-29T01:32:04;6.63;;;5.97;;
77324;SDS011;66387;53.440;10.390;2023-07-29T01:34:39;6.82;;;6.10;;
77324;SDS011;66387;53.440;10.390;2023-07-29T01:37:09;6.85;;;5.60;;
77324;SDS011;66387;53.440;10.390;2023-07-29T01:39:40;7.53;;;5.60;;
77324;SDS011;66387;53.440;10.390;2023-07-29T01:42:07;6.97;;;5.65;;
77324;SDS011;66387;53.440;10.390;2023-07-29T01:44:33;6.65;;;5.72;;
77324;SDS011;66387;53.440;10.390;2023-07-29T01:46:59;7.15;;;6.10;;
77324;SDS011;66387;53.440;10.390;2023-07-29T01:49:24;6.18;;;5.57;;
77324;SDS011;66387;53.440;10.390;2023-07-29T01:51:50;8.20;;;6.03;;
77324;SDS011;66387;53.440;10.390;2023-07-29T01:54:15;7.80;;;5.03;;
77324;SDS011;66387;53.440;10.390;2023-07-29T01:56:40;7.13;;;5.80;;
77324;SDS011;66387;53.440;10.390;2023-07-29T01:59:05;8.60;;;5.27;;
77324;SDS011;66387;53.440;10.390;2023-07-29T02:01:31;6.47;;;5.63;;
77324;SDS011;66387;53.440;10.390;2023-07-29T02:03:56;6.60;;;5.77;;
77324;SDS011;66387;53.440;10.390;2023-07-29T02:06:21;7.20;;;4.97;;
77324;SDS011;66387;53.440;10.390;2023-07-29T02:08:47;6.55;;;5.50;;
77324;SDS011;66387;53.440;10.390;2023-07-29T02:11:12;6.37;;;5.53;;
77324;SDS011;66387;53.440;10.390;2023-07-29T02:13:37;6.13;;;5.53;;
77324;SDS011;66387;53.440;10.390;2023-07-29T02:16:02;6.93;;;5.63;;
77324;SDS011;66387;53.440;10.390;2023-07-29T02:18:28;6.35;;;5.75;;
77324;SDS011;66387;53.440;10.390;2023-07-29T02:20:53;8.40;;;5.60;;
77324;SDS011;66387;53.440;10.390;2023-07-29T02:23:18;7.57;;;5.80;;
77324;SDS011;66387;53.440;10.390;2023-07-29T02:25:44;7.68;;;6.13;;
77324;SDS011;66387;53.440;10.390;2023-07-29T02:28:09;7.00;;;5.60;;
77324;SDS011;66387;53.440;10.390;2023-07-29T02:30:34;8.23;;;5.63;;
77324;SDS011;66387;53.440;10.390;2023-07-29T02:32:59;8.63;;;5.90;;
77324;SDS011;66387;53.440;10.390;2023-07-29T02:35:26;7.30;;;6.03;;
77324;SDS011;66387;53.440;10.390;2023-07-29T02:37:51;6.75;;;5.75;;
77324;SDS011;66387;53.440;10.390;2023-07-29T02:40:17;6.70;;;5.67;;
77324;SDS011;66387;53.440;10.390;2023-07-29T02:42:42;5.60;;;5.00;;
77324;SDS011;66387;53.440;10.390;2023-07-29T02:45:07;8.17;;;6.00;;
77324;SDS011;66387;53.440;10.390;2023-07-29T02:50:00;8.77;;;5.50;;
77324;SDS011;66387;53.440;10.390;2023-07-29T02:52:26;8.03;;;6.33;;
77324;SDS011;66387;53.440;10.390;2023-07-29T02:54:51;8.90;;;5.83;;
77324;SDS011;66387;53.440;10.390;2023-07-29T02:57:16;8.17;;;6.67;;
77324;SDS011;66387;53.440;10.390;2023-07-29T02:59:42;8.27;;;6.68;;
77324;SDS011;66387;53.440;10.390;2023-07-29T03:02:07;7.20;;;5.90;;
77324;SDS011;66387;53.440;10.390;2023-07-29T03:04:33;12.50;;;7.03;;
77324;SDS011;66387;53.440;10.390;2023-07-29T03:06:58;8.67;;;7.27;;
77324;SDS011;66387;53.440;10.390;2023-07-29T03:09:24;9.00;;;7.40;;
77324;SDS011;66387;53.440;10.390;2023-07-29T03:11:49;11.17;;;8.83;;
77324;SDS011;66387;53.440;10.390;2023-07-29T03:14:16;8.90;;;7.28;;
77324;SDS011;66387;53.440;10.390;2023-07-29T03:16:42;10.57;;;8.02;;
77324;SDS011;66387;53.440;10.390;2023-07-29T03:19:07;12.03;;;8.47;;
77324;SDS011;66387;53.440;10.390;2023-07-29T03:21:32;12.53;;;8.80;;
77324;SDS011;66387;53.440;10.390;2023-07-29T03:23:58;10.80;;;8.27;;
77324;SDS011;66387;53.440;10.390;2023-07-29T03:26:23;11.93;;;7.73;;
77324;SDS011;66387;53.440;10.390;2023-07-29T03:28:48;10.97;;;7.73;;
77324;SDS011;66387;53.440;10.390;2023-07-29T03:31:14;8.97;;;7.97;;
77324;SDS011;66387;53.440;10.390;2023-07-29T03:33:39;12.47;;;8.87;;
77324;SDS011;66387;53.440;10.390;2023-07-29T03:36:04;9.67;;;7.70;;
77324;SDS011;66387;53.440;10.390;2023-07-29T03:38:30;10.88;;;8.80;;
77324;SDS011;66387;53.440;10.390;2023-07-29T03:40:55;11.40;;;9.10;;
77324;SDS011;66387;53.440;10.390;2023-07-29T03:43:21;13.50;;;9.52;;
77324;SDS011;66387;53.440;10.390;2023-07-29T03:45:46;10.70;;;8.60;;
77324;SDS011;66387;53.440;10.390;2023-07-29T03:48:11;12.73;;;9.27;;
77324;SDS011;66387;53.440;10.390;2023-07-29T03:50:37;10.67;;;9.57;;
77324;SDS011;66387;53.440;10.390;2023-07-29T03:53:05;13.63;;;8.60;;
77324;SDS011;66387;53.440;10.390;2023-07-29T03:55:31;11.07;;;9.88;;
77324;SDS011;66387;53.440;10.390;2023-07-29T03:57:57;10.10;;;8.05;;
77324;SDS011;66387;53.440;10.390;2023-07-29T04:00:23;13.70;;;9.65;;
77324;SDS011;66387;53.440;10.390;2023-07-29T04:02:48;13.40;;;9.02;;
77324;SDS011;66387;53.440;10.390;2023-07-29T04:05:14;10.73;;;9.13;;
77324;SDS011;66387;53.440;10.390;2023-07-29T04:07:40;11.60;;;9.87;;
77324;SDS011;66387;53.440;10.390;2023-07-29T04:10:05;12.18;;;9.88;;
77324;SDS011;66387;53.440;10.390;2023-07-29T04:12:31;12.30;;;9.63;;
77324;SDS011;66387;53.440;10.390;2023-07-29T04:14:57;12.87;;;10.30;;
77324;SDS011;66387;53.440;10.390;2023-07-29T04:17:22;10.67;;;8.73;;
77324;SDS011;66387;53.440;10.390;2023-07-29T04:19:47;10.73;;;8.97;;
77324;SDS011;66387;53.440;10.390;2023-07-29T04:22:12;13.57;;;9.47;;
77324;SDS011;66387;53.440;10.390;2023-07-29T04:24:38;13.75;;;9.57;;
77324;SDS011;66387;53.440;10.390;2023-07-29T04:27:04;14.40;;;9.47;;
77324;SDS011;66387;53.440;10.390;2023-07-29T04:29:29;11.68;;;10.48;;
77324;SDS011;66387;53.440;10.390;2023-07-29T04:31:55;13.98;;;9.65;;
77324;SDS011;66387;53.440;10.390;2023-07-29T04:34:20;15.53;;;9.90;;
77324;SDS011;66387;53.440;10.390;2023-07-29T04:36:45;14.55;;;10.30;;
77324;SDS011;66387;53.440;10.390;2023-07-29T04:39:11;12.27;;;10.20;;
77324;SDS011;66387;53.440;10.390;2023-07-29T04:41:37;12.55;;;11.23;;
77324;SDS011;66387;53.440;10.390;2023-07-29T04:44:02;12.93;;;10.67;;
77324;SDS011;66387;53.440;10.390;2023-07-29T04:46:27;12.23;;;10.90;;
77324;SDS011;66387;53.440;10.390;2023-07-29T04:48:52;11.90;;;9.93;;
77324;SDS011;66387;53.440;10.390;2023-07-29T04:51:18;12.50;;;10.20;;
77324;SDS011;66387;53.440;10.390;2023-07-29T04:53:43;13.15;;;11.40;;
77324;SDS011;66387;53.440;10.390;2023-07-29T04:56:08;13.73;;;10.73;;
77324;SDS011;66387;53.440;10.390;2023-07-29T04:58:34;12.73;;;10.33;;
77324;SDS011;66387;53.440;10.390;2023-07-29T05:01:00;14.00;;;10.70;;
77324;SDS011;66387;53.440;10.390;2023-07-29T05:03:26;13.35;;;10.57;;
77324;SDS011;66387;53.440;10.390;2023-07-29T05:05:54;11.23;;;9.57;;
77324;SDS011;66387;53.440;10.390;2023-07-29T05:08:21;14.68;;;11.00;;
77324;SDS011;66387;53.440;10.390;2023-07-29T05:10:49;13.13;;;10.13;;
77324;SDS011;66387;53.440;10.390;2023-07-29T05:13:15;14.07;;;11.05;;
77324;SDS011;66387;53.440;10.390;2023-07-29T05:15:41;15.40;;;11.27;;
77324;SDS011;66387;53.440;10.390;2023-07-29T05:18:06;14.93;;;11.43;;
77324;SDS011;66387;53.440;10.390;2023-07-29T05:20:31;14.60;;;10.73;;
77324;SDS011;66387;53.440;10.390;2023-07-29T05:22:57;14.32;;;12.02;;
77324;SDS011;66387;53.440;10.390;2023-07-29T05:25:22;15.93;;;11.40;;
77324;SDS011;66387;53.440;10.390;2023-07-29T05:27:47;15.10;;;11.63;;
77324;SDS011;66387;53.440;10.390;2023-07-29T05:30:13;14.07;;;10.37;;
77324;SDS011;66387;53.440;10.390;2023-07-29T05:32:38;18.23;;;12.57;;
77324;SDS011;66387;53.440;10.390;2023-07-29T05:35:03;14.80;;;11.40;;
77324;SDS011;66387;53.440;10.390;2023-07-29T05:37:29;17.13;;;12.02;;
77324;SDS011;66387;53.440;10.390;2023-07-29T05:39:54;18.93;;;12.17;;
77324;SDS011;66387;53.440;10.390;2023-07-29T05:42:19;17.63;;;12.33;;
77324;SDS011;66387;53.440;10.390;2023-07-29T05:44:44;17.00;;;12.23;;
77324;SDS011;66387;53.440;10.390;2023-07-29T05:47:10;16.88;;;13.35;;
77324;SDS011;66387;53.440;10.390;2023-07-29T05:49:35;18.23;;;13.23;;
77324;SDS011;66387;53.440;10.390;2023-07-29T05:52:01;19.93;;;13.13;;
77324;SDS011;66387;53.440;10.390;2023-07-29T05:54:26;16.67;;;12.77;;
77324;SDS011;66387;53.440;10.390;2023-07-29T05:56:51;16.47;;;12.30;;
77324;SDS011;66387;53.440;10.390;2023-07-29T05:59:16;16.70;;;13.30;;
77324;SDS011;66387;53.440;10.390;2023-07-29T06:01:42;16.63;;;12.87;;
77324;SDS011;66387;53.440;10.390;2023-07-29T06:04:07;15.40;;;12.57;;
77324;SDS011;66387;53.440;10.390;2023-07-29T06:06:32;15.07;;;12.53;;
77324;SDS011;66387;53.440;10.390;2023-07-29T06:08:57;16.57;;;13.53;;
77324;SDS011;66387;53.440;10.390;2023-07-29T06:11:23;18.00;;;14.53;;
77324;SDS011;66387;53.440;10.390;2023-07-29T06:13:48;15.80;;;13.52;;
77324;SDS011;66387;53.440;10.390;2023-07-29T06:16:13;18.77;;;13.87;;
77324;SDS011;66387;53.440;10.390;2023-07-29T06:18:39;17.50;;;13.63;;
77324;SDS011;66387;53.440;10.390;2023-07-29T06:21:04;16.83;;;13.90;;
77324;SDS011;66387;53.440;10.390;2023-07-29T06:23:32;16.80;;;14.10;;
77324;SDS011;66387;53.440;10.390;2023-07-29T06:25:58;17.80;;;13.70;;
77324;SDS011;66387;53.440;10.390;2023-07-29T06:28:25;18.40;;;14.52;;
77324;SDS011;66387;53.440;10.390;2023-07-29T06:30:50;18.67;;;14.05;;
77324;SDS011;66387;53.440;10.390;2023-07-29T06:33:15;18.80;;;13.50;;
77324;SDS011;66387;53.440;10.390;2023-07-29T06:35:41;16.90;;;14.15;;
77324;SDS011;66387;53.440;10.390;2023-07-29T06:38:06;15.70;;;12.37;;
77324;SDS011;66387;53.440;10.390;2023-07-29T06:40:31;17.10;;;13.40;;
77324;SDS011;66387;53.440;10.390;2023-07-29T06:42:57;17.53;;;13.90;;
77324;SDS011;66387;53.440;10.390;2023-07-29T06:45:22;18.37;;;13.87;;
77324;SDS011;66387;53.440;10.390;2023-07-29T06:47:47;16.80;;;12.93;;
77324;SDS011;66387;53.440;10.390;2023-07-29T06:50:12;15.80;;;12.90;;
77324;SDS011;66387;53.440;10.390;2023-07-29T06:52:38;18.83;;;14.03;;
77324;SDS011;66387;53.440;10.390;2023-07-29T06:55:05;15.68;;;12.60;;
77324;SDS011;66387;53.440;10.390;2023-07-29T06:57:30;13.98;;;11.70;;
77324;SDS011;66387;53.440;10.390;2023-07-29T06:59:56;17.13;;;14.10;;
77324;SDS011;66387;53.440;10.390;2023-07-29T07:02:21;14.23;;;11.80;;
77324;SDS011;66387;53.440;10.390;2023-07-29T07:04:46;13.97;;;11.93;;
77324;SDS011;66387;53.440;10.390;2023-07-29T07:07:11;16.97;;;13.40;;
77324;SDS011;66387;53.440;10.390;2023-07-29T07:09:37;14.23;;;11.43;;
77324;SDS011;66387;53.440;10.390;2023-07-29T07:12:02;14.23;;;12.07;;
77324;SDS011;66387;53.440;10.390;2023-07-29T07:14:27;15.35;;;11.30;;
77324;SDS011;66387;53.440;10.390;2023-07-29T07:16:53;13.87;;;12.37;;
77324;SDS011;66387;53.440;10.390;2023-07-29T07:19:18;15.33;;;11.77;;
77324;SDS011;66387;53.440;10.390;2023-07-29T07:21:43;16.37;;;12.50;;
77324;SDS011;66387;53.440;10.390;2023-07-29T07:24:08;15.67;;;11.40;;
77324;SDS011;66387;53.440;10.390;2023-07-29T07:26:34;16.30;;;11.23;;
77324;SDS011;66387;53.440;10.390;2023-07-29T07:28:59;13.20;;;10.45;;
77324;SDS011;66387;53.440;10.390;2023-07-29T07:31:24;11.90;;;10.67;;
77324;SDS011;66387;53.440;10.390;2023-07-29T07:33:49;13.47;;;12.07;;
77324;SDS011;66387;53.440;10.390;2023-07-29T07:36:15;11.87;;;10.63;;
77324;SDS011;66387;53.440;10.390;2023-07-29T07:38:40;11.43;;;10.10;;
77324;SDS011;66387;53.440;10.390;2023-07-29T07:41:06;13.07;;;10.23;;
77324;SDS011;66387;53.440;10.390;2023-07-29T07:43:31;11.57;;;10.37;;
77324;SDS011;66387;53.440;10.390;2023-07-29T07:46:00;12.00;;;9.57;;
77324;SDS011;66387;53.440;10.390;2023-07-29T07:48:26;11.88;;;9.65;;
77324;SDS011;66387;53.440;10.390;2023-07-29T07:50:54;13.32;;;10.32;;
77324;SDS011;66387;53.440;10.390;2023-07-29T07:53:19;12.23;;;10.07;;
77324;SDS011;66387;53.440;10.390;2023-07-29T07:55:45;16.37;;;10.87;;
77324;SDS011;66387;53.440;10.390;2023-07-29T07:58:10;14.32;;;10.50;;
77324;SDS011;66387;53.440;10.390;2023-07-29T08:00:35;13.20;;;9.57;;
77324;SDS011;66387;53.440;10.390;2023-07-29T08:03:01;14.27;;;9.63;;
77324;SDS011;66387;53.440;10.390;2023-07-29T08:05:26;11.60;;;9.07;;
77324;SDS011;66387;53.440;10.390;2023-07-29T08:07:51;10.70;;;8.57;;
77324;SDS011;66387;53.440;10.390;2023-07-29T08:10:16;11.20;;;9.33;;
77324;SDS011;66387;53.440;10.390;2023-07-29T08:12:42;9.47;;;8.57;;
77324;SDS011;66387;53.440;10.390;2023-07-29T08:15:07;10.53;;;8.13;;
77324;SDS011;66387;53.440;10.390;2023-07-29T08:17:32;9.13;;;8.02;;
77324;SDS011;66387;53.440;10.390;2023-07-29T08:19:58;8.73;;;7.90;;
77324;SDS011;66387;53.440;10.390;2023-07-29T08:22:23;10.43;;;7.10;;
77324;SDS011;66387;53.440;10.390;2023-07-29T08:24:48;7.90;;;7.10;;
77324;SDS011;66387;53.440;10.390;2023-07-29T08:27:13;9.17;;;6.67;;
77324;SDS011;66387;53.440;10.390;2023-07-29T08:29:38;6.13;;;5.53;;
77324;SDS011;66387;53.440;10.390;2023-07-29T08:32:04;6.00;;;5.50;;
77324;SDS011;66387;53.440;10.390;2023-07-29T08:34:29;5.43;;;4.87;;
77324;SDS011;66387;53.440;10.390;2023-07-29T08:36:54;6.87;;;4.70;;
77324;SDS011;66387;53.440;10.390;2023-07-29T08:39:19;5.00;;;4.47;;
77324;SDS011;66387;53.440;10.390;2023-07-29T08:41:57;4.57;;;4.17;;
77324;SDS011;66387;53.440;10.390;2023-07-29T08:44:30;5.43;;;4.22;;
77324;SDS011;66387;53.440;10.390;2023-07-29T08:46:59;5.18;;;4.00;;
77324;SDS011;66387;53.440;10.390;2023-07-29T08:49:26;4.78;;;3.67;;
77324;SDS011;66387;53.440;10.390;2023-07-29T08:51:52;4.85;;;4.45;;
77324;SDS011;66387;53.440;10.390;2023-07-29T08:54:18;5.57;;;4.30;;
77324;SDS011;66387;53.440;10.390;2023-07-29T08:56:44;5.43;;;4.93;;
77324;SDS011;66387;53.440;10.390;2023-07-29T08:59:10;6.18;;;5.60;;
77324;SDS011;66387;53.440;10.390;2023-07-29T09:01:37;5.30;;;4.80;;
77324;SDS011;66387;53.440;10.390;2023-07-29T09:04:03;7.18;;;5.20;;
77324;SDS011;66387;53.440;10.390;2023-07-29T09:06:29;5.93;;;5.32;;
77324;SDS011;66387;53.440;10.390;2023-07-29T09:08:56;6.80;;;5.72;;
77324;SDS011;66387;53.440;10.390;2023-07-29T09:11:21;5.78;;;5.18;;
77324;SDS011;66387;53.440;10.390;2023-07-29T09:13:47;6.25;;;5.03;;
77324;SDS011;66387;53.440;10.390;2023-07-29T09:16:13;6.88;;;5.60;;
77324;SDS011;66387;53.440;10.390;2023-07-29T09:18:38;6.93;;;5.38;;
77324;SDS011;66387;53.440;10.390;2023-07-29T09:21:03;6.57;;;5.33;;
77324;SDS011;66387;53.440;10.390;2023-07-29T09:23:38;7.83;;;7.07;;
77324;SDS011;66387;53.440;10.390;2023-07-29T09:26:05;6.97;;;5.38;;
77324;SDS011;66387;53.440;10.390;2023-07-29T09:28:34;7.07;;;6.37;;
77324;SDS011;66387;53.440;10.390;2023-07-29T09:31:00;6.72;;;5.93;;
77324;SDS011;66387;53.440;10.390;2023-07-29T09:33:26;7.47;;;6.17;;
77324;SDS011;66387;53.440;10.390;2023-07-29T09:35:51;5.88;;;5.28;;
77324;SDS011;66387;53.440;10.390;2023-07-29T09:38:17;6.23;;;5.63;;
77324;SDS011;66387;53.440;10.390;2023-07-29T09:40:42;6.73;;;6.03;;
77324;SDS011;66387;53.440;10.390;2023-07-29T09:43:10;7.07;;;5.95;;
77324;SDS011;66387;53.440;10.390;2023-07-29T09:45:35;6.95;;;6.25;;
77324;SDS011;66387;53.440;10.390;2023-07-29T09:48:02;7.15;;;6.05;;
77324;SDS011;66387;53.440;10.390;2023-07-29T09:50:30;7.80;;;6.13;;
77324;SDS011;66387;53.440;10.390;2023-07-29T09:52:56;7.25;;;6.53;;
77324;SDS011;66387;53.440;10.390;2023-07-29T09:55:24;7.00;;;6.30;;
77324;SDS011;66387;53.440;10.390;2023-07-29T09:57:57;6.80;;;6.20;;
77324;SDS011;66387;53.440;10.390;2023-07-29T10:00:29;7.65;;;6.80;;
77324;SDS011;66387;53.440;10.390;2023-07-29T10:02:57;7.03;;;6.00;;
77324;SDS011;66387;53.440;10.390;2023-07-29T10:05:25;7.35;;;6.53;;
77324;SDS011;66387;53.440;10.390;2023-07-29T10:07:52;7.43;;;6.72;;
77324;SDS011;66387;53.440;10.390;2023-07-29T10:10:19;8.15;;;6.65;;
77324;SDS011;66387;53.440;10.390;2023-07-29T10:12:45;8.80;;;6.93;;
77324;SDS011;66387;53.440;10.390;2023-07-29T10:15:11;7.97;;;7.18;;
77324;SDS011;66387;53.440;10.390;2023-07-29T10:17:38;8.32;;;6.80;;
77324;SDS011;66387;53.440;10.390;2023-07-29T10:20:07;7.13;;;5.72;;
77324;SDS011;66387;53.440;10.390;2023-07-29T10:22:37;7.60;;;5.72;;
77324;SDS011;66387;53.440;10.390;2023-07-29T10:25:05;7.20;;;6.18;;
77324;SDS011;66387;53.440;10.390;2023-07-29T10:27:42;6.53;;;5.85;;
77324;SDS011;66387;53.440;10.390;2023-07-29T10:30:09;8.13;;;7.10;;
77324;SDS011;66387;53.440;10.390;2023-07-29T10:32:36;6.28;;;5.68;;
77324;SDS011;66387;53.440;10.390;2023-07-29T10:35:03;7.03;;;6.20;;
77324;SDS011;66387;53.440;10.390;2023-07-29T10:37:28;6.68;;;5.95;;
77324;SDS011;66387;53.440;10.390;2023-07-29T10:39:54;7.53;;;5.85;;
77324;SDS011;66387;53.440;10.390;2023-07-29T10:42:21;7.57;;;6.68;;
77324;SDS011;66387;53.440;10.390;2023-07-29T10:44:51;8.00;;;6.20;;
77324;SDS011;66387;53.440;10.390;2023-07-29T10:49:50;6.15;;;5.35;;
77324;SDS011;66387;53.440;10.390;2023-07-29T10:55:01;5.80;;;4.93;;
77324;SDS011;66387;53.440;10.390;2023-07-29T10:57:32;5.78;;;5.10;;
77324;SDS011;66387;53.440;10.390;2023-07-29T10:59:59;6.10;;;5.32;;
77324;SDS011;66387;53.440;10.390;2023-07-29T11:02:29;5.63;;;4.97;;
77324;SDS011;66387;53.440;10.390;2023-07-29T11:04:55;5.25;;;4.20;;
77324;SDS011;66387;53.440;10.390;2023-07-29T11:07:21;8.63;;;5.20;;
77324;SDS011;66387;53.440;10.390;2023-07-29T11:09:57;5.28;;;4.70;;
77324;SDS011;66387;53.440;10.390;2023-07-29T11:12:37;5.22;;;4.63;;
77324;SDS011;66387;53.440;10.390;2023-07-29T11:15:03;4.85;;;4.35;;
77324;SDS011;66387;53.440;10.390;2023-07-29T11:17:34;4.70;;;4.25;;
77324;SDS011;66387;53.440;10.390;2023-07-29T11:20:01;4.88;;;4.45;;
77324;SDS011;66387;53.440;10.390;2023-07-29T11:22:28;5.70;;;4.03;;
77324;SDS011;66387;53.440;10.390;2023-07-29T11:24:54;4.35;;;3.95;;
77324;SDS011;66387;53.440;10.390;2023-07-29T11:27:19;4.13;;;3.83;;
77324;SDS011;66387;53.440;10.390;2023-07-29T11:29:44;5.00;;;3.73;;
77324;SDS011;66387;53.440;10.390;2023-07-29T11:32:09;4.67;;;3.93;;
77324;SDS011;66387;53.440;10.390;2023-07-29T11:34:35;5.13;;;3.70;;
77324;SDS011;66387;53.440;10.390;2023-07-29T11:37:00;5.40;;;4.23;;
77324;SDS011;66387;53.440;10.390;2023-07-29T11:39:25;4.17;;;3.60;;
77324;SDS011;66387;53.440;10.390;2023-07-29T11:41:51;3.90;;;3.60;;
77324;SDS011;66387;53.440;10.390;2023-07-29T11:44:16;4.37;;;3.87;;
77324;SDS011;66387;53.440;10.390;2023-07-29T11:46:42;4.80;;;3.55;;
77324;SDS011;66387;53.440;10.390;2023-07-29T11:49:08;5.97;;;4.40;;
77324;SDS011;66387;53.440;10.390;2023-07-29T11:51:33;4.17;;;3.77;;
77324;SDS011;66387;53.440;10.390;2023-07-29T11:53:59;4.72;;;4.07;;
77324;SDS011;66387;53.440;10.390;2023-07-29T11:56:25;4.78;;;3.90;;
77324;SDS011;66387;53.440;10.390;2023-07-29T11:58:51;5.03;;;3.45;;
77324;SDS011;66387;53.440;10.390;2023-07-29T12:01:16;3.33;;;3.03;;
77324;SDS011;66387;53.440;10.390;2023-07-29T12:03:42;4.03;;;2.90;;
77324;SDS011;66387;53.440;10.390;2023-07-29T12:06:08;3.95;;;3.25;;
77324;SDS011;66387;53.440;10.390;2023-07-29T12:08:34;4.03;;;3.55;;
77324;SDS011;66387;53.440;10.390;2023-07-29T12:10:59;3.40;;;3.00;;
77324;SDS011;66387;53.440;10.390;2023-07-29T12:13:25;4.90;;;3.40;;
77324;SDS011;66387;53.440;10.390;2023-07-29T12:15:50;4.53;;;3.45;;
77324;SDS011;66387;53.440;10.390;2023-07-29T12:18:15;4.75;;;3.30;;
77324;SDS011;66387;53.440;10.390;2023-07-29T12:20:41;4.33;;;3.00;;
77324;SDS011;66387;53.440;10.390;2023-07-29T12:23:06;3.85;;;3.50;;
77324;SDS011;66387;53.440;10.390;2023-07-29T12:25:32;3.65;;;3.35;;
77324;SDS011;66387;53.440;10.390;2023-07-29T12:28:07;3.72;;;3.42;;
77324;SDS011;66387;53.440;10.390;2023-07-29T12:30:32;4.47;;;3.47;;
77324;SDS011;66387;53.440;10.390;2023-07-29T12:32:58;3.60;;;2.78;;
77324;SDS011;66387;53.440;10.390;2023-07-29T12:35:24;3.53;;;3.22;;
77324;SDS011;66387;53.440;10.390;2023-07-29T12:37:58;4.13;;;3.33;;
77324;SDS011;66387;53.440;10.390;2023-07-29T12:40:24;4.57;;;3.15;;
77324;SDS011;66387;53.440;10.390;2023-07-29T12:42:51;3.55;;;3.13;;
77324;SDS011;66387;53.440;10.390;2023-07-29T12:45:17;3.67;;;3.35;;
77324;SDS011;66387;53.440;10.390;2023-07-29T12:47:43;4.53;;;3.58;;
77324;SDS011;66387;53.440;10.390;2023-07-29T12:50:08;4.60;;;4.03;;
77324;SDS011;66387;53.440;10.390;2023-07-29T12:52:34;3.83;;;3.47;;
77324;SDS011;66387;53.440;10.390;2023-07-29T12:54:59;4.10;;;3.30;;
77324;SDS011;66387;53.440;10.390;2023-07-29T12:57:24;4.30;;;3.60;;
77324;SDS011;66387;53.440;10.390;2023-07-29T12:59:49;4.35;;;3.67;;
77324;SDS011;66387;53.440;10.390;2023-07-29T13:02:15;3.50;;;3.20;;
77324;SDS011;66387;53.440;10.390;2023-07-29T13:04:40;4.40;;;3.93;;
77324;SDS011;66387;53.440;10.390;2023-07-29T13:07:05;4.40;;;3.95;;
77324;SDS011;66387;53.440;10.390;2023-07-29T13:09:31;5.10;;;3.25;;
77324;SDS011;66387;53.440;10.390;2023-07-29T13:11:57;3.80;;;3.50;;
77324;SDS011;66387;53.440;10.390;2023-07-29T13:14:22;3.88;;;3.45;;
77324;SDS011;66387;53.440;10.390;2023-07-29T13:16:47;4.57;;;3.37;;
77324;SDS011;66387;53.440;10.390;2023-07-29T13:19:13;3.10;;;2.80;;
77324;SDS011;66387;53.440;10.390;2023-07-29T13:21:38;3.20;;;2.67;;
77324;SDS011;66387;53.440;10.390;2023-07-29T13:24:03;3.70;;;3.03;;
77324;SDS011;66387;53.440;10.390;2023-07-29T13:26:28;3.50;;;2.70;;
77324;SDS011;66387;53.440;10.390;2023-07-29T13:28:54;3.40;;;3.10;;
77324;SDS011;66387;53.440;10.390;2023-07-29T13:31:20;3.40;;;2.63;;
77324;SDS011;66387;53.440;10.390;2023-07-29T13:33:45;2.80;;;2.43;;
77324;SDS011;66387;53.440;10.390;2023-07-29T13:36:11;3.47;;;2.50;;
77324;SDS011;66387;53.440;10.390;2023-07-29T13:38:39;3.67;;;2.65;;
77324;SDS011;66387;53.440;10.390;2023-07-29T13:41:04;2.63;;;2.13;;
77324;SDS011;66387;53.440;10.390;2023-07-29T13:43:30;3.35;;;2.50;;
77324;SDS011;66387;53.440;10.390;2023-07-29T13:45:55;2.60;;;2.30;;
77324;SDS011;66387;53.440;10.390;2023-07-29T13:48:21;2.83;;;2.43;;
77324;SDS011;66387;53.440;10.390;2023-07-29T13:50:46;7.03;;;3.13;;
77324;SDS011;66387;53.440;10.390;2023-07-29T13:53:11;2.37;;;1.90;;
77324;SDS011;66387;53.440;10.390;2023-07-29T13:55:37;2.87;;;2.57;;
77324;SDS011;66387;53.440;10.390;2023-07-29T13:58:02;2.77;;;2.47;;
77324;SDS011;66387;53.440;10.390;2023-07-29T14:00:27;2.55;;;2.00;;
77324;SDS011;66387;53.440;10.390;2023-07-29T14:02:52;2.80;;;2.20;;
77324;SDS011;66387;53.440;10.390;2023-07-29T14:05:18;3.05;;;2.47;;
77324;SDS011;66387;53.440;10.390;2023-07-29T14:07:43;2.78;;;2.33;;
77324;SDS011;66387;53.440;10.390;2023-07-29T14:10:09;2.60;;;2.37;;
77324;SDS011;66387;53.440;10.390;2023-07-29T14:12:34;2.77;;;2.10;;
77324;SDS011;66387;53.440;10.390;2023-07-29T14:14:59;2.30;;;2.10;;
77324;SDS011;66387;53.440;10.390;2023-07-29T14:17:25;3.72;;;2.60;;
77324;SDS011;66387;53.440;10.390;2023-07-29T14:19:50;3.33;;;3.03;;
77324;SDS011;66387;53.440;10.390;2023-07-29T14:22:15;2.73;;;2.20;;
77324;SDS011;66387;53.440;10.390;2023-07-29T14:24:41;4.50;;;2.90;;
77324;SDS011;66387;53.440;10.390;2023-07-29T14:27:06;3.37;;;2.37;;
77324;SDS011;66387;53.440;10.390;2023-07-29T14:29:31;3.33;;;2.37;;
77324;SDS011;66387;53.440;10.390;2023-07-29T14:31:56;2.83;;;2.53;;